sensor_id;sensor_type;location;lat;lon;timestamp;P1;durP1;ratioP1;P2;durP2;ratioP2
18046;SDS011;9148;51.454;13.862;2023-11-19T00:00:42;5.07;;;2.37;;
18046;SDS011;9148;51.454;13.862;2023-11-19T00:03:07;2.17;;;1.93;;
18046;SDS011;9148;51.454;13.862;2023-11-19T00:05:33;4.83;;;2.67;;
18046;SDS011;9148;51.454;13.862;2023-11-19T00:07:59;4.57;;;3.07;;
18046;SDS011;9148;51.454;13.862;2023-11-19T00:10:25;3.67;;;2.67;;
18046;SDS011;9148;51.454;13.862;2023-11-19T00:12:50;2.63;;;2.10;;
18046;SDS011;9148;51.454;13.862;2023-11-19T00:15:16;2.60;;;1.93;;
18046;SDS011;9148;51.454;13.862;2023-11-19T00:17:46;4.40;;;2.30;;
18046;SDS011;9148;51.454;13.862;2023-11-19T00:20:13;2.07;;;1.93;;
18046;SDS011;9148;51.454;13.862;2023-11-19T00:22:44;4.17;;;2.23;;
18046;SDS011;9148;51.454;13.862;2023-11-19T00:25:13;3.67;;;2.70;;
18046;SDS011;9148;51.454;13.862;2023-11-19T00:27:39;1.97;;;1.70;;
18046;SDS011;9148;51.454;13.862;2023-11-19T00:30:05;3.37;;;2.10;;
18046;SDS011;9148;51.454;13.862;2023-11-19T00:32:32;3.57;;;2.50;;
18046;SDS011;9148;51.454;13.862;2023-11-19T00:34:58;2.87;;;2.40;;
18046;SDS011;9148;51.454;13.862;2023-11-19T00:37:23;6.13;;;2.43;;
18046;SDS011;9148;51.454;13.862;2023-11-19T00:39:49;4.27;;;2.67;;
18046;SDS011;9148;51.454;13.862;2023-11-19T00:42:16;2.77;;;1.97;;
18046;SDS011;9148;51.454;13.862;2023-11-19T00:44:42;2.90;;;2.10;;
18046;SDS011;9148;51.454;13.862;2023-11-19T00:47:08;2.00;;;1.90;;
18046;SDS011;9148;51.454;13.862;2023-11-19T00:49:34;3.33;;;2.27;;
18046;SDS011;9148;51.454;13.862;2023-11-19T00:52:00;2.80;;;2.23;;
18046;SDS011;9148;51.454;13.862;2023-11-19T00:54:27;2.23;;;2.03;;
18046;SDS011;9148;51.454;13.862;2023-11-19T00:56:55;4.40;;;2.20;;
18046;SDS011;9148;51.454;13.862;2023-11-19T00:59:21;3.07;;;2.17;;
18046;SDS011;9148;51.454;13.862;2023-11-19T01:01:47;3.07;;;2.70;;
18046;SDS011;9148;51.454;13.862;2023-11-19T01:04:13;3.03;;;2.60;;
18046;SDS011;9148;51.454;13.862;2023-11-19T01:06:39;4.17;;;2.33;;
18046;SDS011;9148;51.454;13.862;2023-11-19T01:09:07;2.60;;;2.40;;
18046;SDS011;9148;51.454;13.862;2023-11-19T01:11:33;2.60;;;2.33;;
18046;SDS011;9148;51.454;13.862;2023-11-19T01:13:59;3.90;;;2.33;;
18046;SDS011;9148;51.454;13.862;2023-11-19T01:16:25;3.70;;;2.57;;
18046;SDS011;9148;51.454;13.862;2023-11-19T01:18:51;4.07;;;2.70;;
18046;SDS011;9148;51.454;13.862;2023-11-19T01:21:17;4.47;;;2.80;;
18046;SDS011;9148;51.454;13.862;2023-11-19T01:23:46;7.67;;;3.27;;
18046;SDS011;9148;51.454;13.862;2023-11-19T01:26:12;4.90;;;3.30;;
18046;SDS011;9148;51.454;13.862;2023-11-19T01:28:41;2.73;;;2.43;;
18046;SDS011;9148;51.454;13.862;2023-11-19T01:31:10;3.73;;;2.70;;
18046;SDS011;9148;51.454;13.862;2023-11-19T01:33:37;4.03;;;3.03;;
18046;SDS011;9148;51.454;13.862;2023-11-19T01:36:05;4.60;;;3.47;;
18046;SDS011;9148;51.454;13.862;2023-11-19T01:38:31;3.37;;;3.07;;
18046;SDS011;9148;51.454;13.862;2023-11-19T01:40:57;7.00;;;3.40;;
18046;SDS011;9148;51.454;13.862;2023-11-19T01:43:35;2.67;;;2.27;;
18046;SDS011;9148;51.454;13.862;2023-11-19T01:46:02;2.77;;;2.57;;
18046;SDS011;9148;51.454;13.862;2023-11-19T01:48:31;5.40;;;3.03;;
18046;SDS011;9148;51.454;13.862;2023-11-19T01:50:58;3.90;;;2.93;;
18046;SDS011;9148;51.454;13.862;2023-11-19T01:53:24;5.80;;;3.93;;
18046;SDS011;9148;51.454;13.862;2023-11-19T01:55:50;4.70;;;3.00;;
18046;SDS011;9148;51.454;13.862;2023-11-19T01:58:17;4.33;;;3.23;;
18046;SDS011;9148;51.454;13.862;2023-11-19T02:00:47;5.70;;;3.60;;
18046;SDS011;9148;51.454;13.862;2023-11-19T02:03:13;8.17;;;3.67;;
18046;SDS011;9148;51.454;13.862;2023-11-19T02:05:39;7.07;;;3.33;;
18046;SDS011;9148;51.454;13.862;2023-11-19T02:08:05;5.70;;;3.60;;
18046;SDS011;9148;51.454;13.862;2023-11-19T02:10:31;4.03;;;2.93;;
18046;SDS011;9148;51.454;13.862;2023-11-19T02:12:57;4.00;;;3.00;;
18046;SDS011;9148;51.454;13.862;2023-11-19T02:15:24;4.80;;;3.27;;
18046;SDS011;9148;51.454;13.862;2023-11-19T02:17:50;4.67;;;3.33;;
18046;SDS011;9148;51.454;13.862;2023-11-19T02:20:16;4.40;;;2.67;;
18046;SDS011;9148;51.454;13.862;2023-11-19T02:22:44;5.03;;;3.17;;
18046;SDS011;9148;51.454;13.862;2023-11-19T02:25:25;5.30;;;3.97;;
18046;SDS011;9148;51.454;13.862;2023-11-19T02:27:59;4.17;;;2.47;;
18046;SDS011;9148;51.454;13.862;2023-11-19T02:30:26;4.60;;;2.60;;
18046;SDS011;9148;51.454;13.862;2023-11-19T02:32:56;7.97;;;3.67;;
18046;SDS011;9148;51.454;13.862;2023-11-19T02:35:23;3.03;;;2.37;;
18046;SDS011;9148;51.454;13.862;2023-11-19T02:37:51;2.73;;;2.20;;
18046;SDS011;9148;51.454;13.862;2023-11-19T02:40:16;2.77;;;2.50;;
18046;SDS011;9148;51.454;13.862;2023-11-19T02:42:42;3.43;;;2.27;;
18046;SDS011;9148;51.454;13.862;2023-11-19T02:45:08;3.03;;;1.93;;
18046;SDS011;9148;51.454;13.862;2023-11-19T02:47:39;2.50;;;2.27;;
18046;SDS011;9148;51.454;13.862;2023-11-19T02:50:11;3.50;;;2.93;;
18046;SDS011;9148;51.454;13.862;2023-11-19T02:52:40;2.57;;;2.37;;
18046;SDS011;9148;51.454;13.862;2023-11-19T02:55:07;3.40;;;2.80;;
18046;SDS011;9148;51.454;13.862;2023-11-19T02:57:35;2.70;;;2.50;;
18046;SDS011;9148;51.454;13.862;2023-11-19T03:00:01;2.30;;;1.80;;
18046;SDS011;9148;51.454;13.862;2023-11-19T03:02:37;3.13;;;2.63;;
18046;SDS011;9148;51.454;13.862;2023-11-19T03:05:23;2.90;;;2.40;;
18046;SDS011;9148;51.454;13.862;2023-11-19T03:07:49;2.23;;;1.67;;
18046;SDS011;9148;51.454;13.862;2023-11-19T03:10:15;4.40;;;2.33;;
18046;SDS011;9148;51.454;13.862;2023-11-19T03:12:41;3.43;;;2.10;;
18046;SDS011;9148;51.454;13.862;2023-11-19T03:15:09;2.30;;;1.67;;
18046;SDS011;9148;51.454;13.862;2023-11-19T03:17:36;2.60;;;1.87;;
18046;SDS011;9148;51.454;13.862;2023-11-19T03:20:05;2.53;;;2.00;;
18046;SDS011;9148;51.454;13.862;2023-11-19T03:22:41;1.80;;;1.70;;
18046;SDS011;9148;51.454;13.862;2023-11-19T03:25:08;2.80;;;1.67;;
18046;SDS011;9148;51.454;13.862;2023-11-19T03:27:34;3.77;;;2.60;;
18046;SDS011;9148;51.454;13.862;2023-11-19T03:30:02;2.50;;;1.50;;
18046;SDS011;9148;51.454;13.862;2023-11-19T03:32:29;2.73;;;1.83;;
18046;SDS011;9148;51.454;13.862;2023-11-19T03:34:57;2.10;;;1.70;;
18046;SDS011;9148;51.454;13.862;2023-11-19T03:37:23;2.23;;;1.73;;
18046;SDS011;9148;51.454;13.862;2023-11-19T03:39:49;3.53;;;1.53;;
18046;SDS011;9148;51.454;13.862;2023-11-19T03:42:14;1.63;;;1.53;;
18046;SDS011;9148;51.454;13.862;2023-11-19T03:44:40;1.50;;;1.40;;
18046;SDS011;9148;51.454;13.862;2023-11-19T03:47:05;1.80;;;1.70;;
18046;SDS011;9148;51.454;13.862;2023-11-19T03:49:31;1.97;;;1.57;;
18046;SDS011;9148;51.454;13.862;2023-11-19T03:51:57;1.50;;;1.40;;
18046;SDS011;9148;51.454;13.862;2023-11-19T03:54:23;2.40;;;1.80;;
18046;SDS011;9148;51.454;13.862;2023-11-19T03:56:49;2.67;;;1.13;;
18046;SDS011;9148;51.454;13.862;2023-11-19T03:59:15;3.57;;;1.70;;
18046;SDS011;9148;51.454;13.862;2023-11-19T04:01:40;2.43;;;2.00;;
18046;SDS011;9148;51.454;13.862;2023-11-19T04:04:06;1.77;;;1.33;;
18046;SDS011;9148;51.454;13.862;2023-11-19T04:06:32;1.77;;;1.30;;
18046;SDS011;9148;51.454;13.862;2023-11-19T04:08:57;1.63;;;1.47;;
18046;SDS011;9148;51.454;13.862;2023-11-19T04:11:23;1.67;;;1.50;;
18046;SDS011;9148;51.454;13.862;2023-11-19T04:13:49;1.63;;;1.10;;
18046;SDS011;9148;51.454;13.862;2023-11-19T04:16:14;1.50;;;1.40;;
18046;SDS011;9148;51.454;13.862;2023-11-19T04:18:40;1.83;;;1.73;;
18046;SDS011;9148;51.454;13.862;2023-11-19T04:21:09;1.67;;;1.20;;
18046;SDS011;9148;51.454;13.862;2023-11-19T04:23:36;1.00;;;1.00;;
18046;SDS011;9148;51.454;13.862;2023-11-19T04:26:02;1.53;;;0.90;;
18046;SDS011;9148;51.454;13.862;2023-11-19T04:28:29;1.40;;;1.30;;
18046;SDS011;9148;51.454;13.862;2023-11-19T04:30:55;2.13;;;1.07;;
18046;SDS011;9148;51.454;13.862;2023-11-19T04:33:21;1.33;;;1.13;;
18046;SDS011;9148;51.454;13.862;2023-11-19T04:35:47;1.07;;;1.00;;
18046;SDS011;9148;51.454;13.862;2023-11-19T04:38:12;1.47;;;1.37;;
18046;SDS011;9148;51.454;13.862;2023-11-19T04:40:38;1.60;;;1.47;;
18046;SDS011;9148;51.454;13.862;2023-11-19T04:43:04;2.27;;;1.40;;
18046;SDS011;9148;51.454;13.862;2023-11-19T04:45:29;1.67;;;1.13;;
18046;SDS011;9148;51.454;13.862;2023-11-19T04:47:55;2.80;;;1.10;;
18046;SDS011;9148;51.454;13.862;2023-11-19T04:50:20;1.73;;;1.00;;
18046;SDS011;9148;51.454;13.862;2023-11-19T04:52:46;2.40;;;1.87;;
18046;SDS011;9148;51.454;13.862;2023-11-19T04:55:12;1.67;;;1.37;;
18046;SDS011;9148;51.454;13.862;2023-11-19T04:57:39;1.50;;;1.23;;
18046;SDS011;9148;51.454;13.862;2023-11-19T05:00:05;2.47;;;1.53;;
18046;SDS011;9148;51.454;13.862;2023-11-19T05:02:36;2.33;;;2.10;;
18046;SDS011;9148;51.454;13.862;2023-11-19T05:05:02;2.83;;;1.70;;
18046;SDS011;9148;51.454;13.862;2023-11-19T05:07:29;4.40;;;3.33;;
18046;SDS011;9148;51.454;13.862;2023-11-19T05:09:55;2.57;;;1.73;;
18046;SDS011;9148;51.454;13.862;2023-11-19T05:12:21;2.30;;;2.10;;
18046;SDS011;9148;51.454;13.862;2023-11-19T05:14:47;2.00;;;1.90;;
18046;SDS011;9148;51.454;13.862;2023-11-19T05:17:16;2.80;;;2.50;;
18046;SDS011;9148;51.454;13.862;2023-11-19T05:19:45;4.20;;;2.40;;
18046;SDS011;9148;51.454;13.862;2023-11-19T05:22:11;8.03;;;3.53;;
18046;SDS011;9148;51.454;13.862;2023-11-19T05:24:37;4.03;;;2.77;;
18046;SDS011;9148;51.454;13.862;2023-11-19T05:27:04;6.30;;;3.93;;
18046;SDS011;9148;51.454;13.862;2023-11-19T05:29:31;5.53;;;2.73;;
18046;SDS011;9148;51.454;13.862;2023-11-19T05:31:57;6.47;;;2.90;;
18046;SDS011;9148;51.454;13.862;2023-11-19T05:34:23;3.87;;;2.63;;
18046;SDS011;9148;51.454;13.862;2023-11-19T05:36:49;2.53;;;1.60;;
18046;SDS011;9148;51.454;13.862;2023-11-19T05:39:16;4.50;;;2.10;;
18046;SDS011;9148;51.454;13.862;2023-11-19T05:41:43;2.43;;;2.23;;
18046;SDS011;9148;51.454;13.862;2023-11-19T05:44:09;3.37;;;1.97;;
18046;SDS011;9148;51.454;13.862;2023-11-19T05:46:34;3.60;;;2.17;;
18046;SDS011;9148;51.454;13.862;2023-11-19T05:49:05;3.63;;;2.57;;
18046;SDS011;9148;51.454;13.862;2023-11-19T05:51:31;2.20;;;1.67;;
18046;SDS011;9148;51.454;13.862;2023-11-19T05:53:56;1.63;;;1.53;;
18046;SDS011;9148;51.454;13.862;2023-11-19T05:56:22;2.30;;;2.10;;
18046;SDS011;9148;51.454;13.862;2023-11-19T05:58:57;4.77;;;2.73;;
18046;SDS011;9148;51.454;13.862;2023-11-19T06:01:26;2.50;;;2.30;;
18046;SDS011;9148;51.454;13.862;2023-11-19T06:03:51;6.20;;;3.17;;
18046;SDS011;9148;51.454;13.862;2023-11-19T06:06:18;3.17;;;2.40;;
18046;SDS011;9148;51.454;13.862;2023-11-19T06:08:43;2.37;;;2.17;;
18046;SDS011;9148;51.454;13.862;2023-11-19T06:11:09;3.07;;;2.00;;
18046;SDS011;9148;51.454;13.862;2023-11-19T06:13:43;3.50;;;2.20;;
18046;SDS011;9148;51.454;13.862;2023-11-19T06:16:15;3.13;;;2.13;;
18046;SDS011;9148;51.454;13.862;2023-11-19T06:18:41;3.00;;;2.27;;
18046;SDS011;9148;51.454;13.862;2023-11-19T06:21:08;2.97;;;2.60;;
18046;SDS011;9148;51.454;13.862;2023-11-19T06:23:35;2.00;;;1.80;;
18046;SDS011;9148;51.454;13.862;2023-11-19T06:26:00;4.03;;;2.53;;
18046;SDS011;9148;51.454;13.862;2023-11-19T06:28:26;2.07;;;1.93;;
18046;SDS011;9148;51.454;13.862;2023-11-19T06:30:52;5.13;;;2.63;;
18046;SDS011;9148;51.454;13.862;2023-11-19T06:33:18;2.30;;;2.07;;
18046;SDS011;9148;51.454;13.862;2023-11-19T06:35:43;2.20;;;2.00;;
18046;SDS011;9148;51.454;13.862;2023-11-19T06:38:10;4.17;;;2.57;;
18046;SDS011;9148;51.454;13.862;2023-11-19T06:40:35;3.10;;;2.33;;
18046;SDS011;9148;51.454;13.862;2023-11-19T06:43:01;4.40;;;2.97;;
18046;SDS011;9148;51.454;13.862;2023-11-19T06:45:28;2.27;;;2.07;;
18046;SDS011;9148;51.454;13.862;2023-11-19T06:48:00;3.03;;;2.30;;
18046;SDS011;9148;51.454;13.862;2023-11-19T06:50:28;2.27;;;1.80;;
18046;SDS011;9148;51.454;13.862;2023-11-19T06:52:54;3.03;;;1.80;;
18046;SDS011;9148;51.454;13.862;2023-11-19T06:55:19;6.10;;;2.17;;
18046;SDS011;9148;51.454;13.862;2023-11-19T06:57:45;3.83;;;2.93;;
18046;SDS011;9148;51.454;13.862;2023-11-19T07:00:11;3.63;;;2.30;;
18046;SDS011;9148;51.454;13.862;2023-11-19T07:02:37;2.30;;;2.03;;
18046;SDS011;9148;51.454;13.862;2023-11-19T07:05:04;3.60;;;2.17;;
18046;SDS011;9148;51.454;13.862;2023-11-19T07:07:31;2.27;;;1.43;;
18046;SDS011;9148;51.454;13.862;2023-11-19T07:09:57;2.83;;;2.40;;
18046;SDS011;9148;51.454;13.862;2023-11-19T07:12:23;3.37;;;2.37;;
18046;SDS011;9148;51.454;13.862;2023-11-19T07:14:51;4.93;;;2.90;;
18046;SDS011;9148;51.454;13.862;2023-11-19T07:17:18;2.77;;;2.50;;
18046;SDS011;9148;51.454;13.862;2023-11-19T07:19:45;5.50;;;2.77;;
18046;SDS011;9148;51.454;13.862;2023-11-19T07:22:11;3.00;;;2.63;;
18046;SDS011;9148;51.454;13.862;2023-11-19T07:24:40;2.67;;;2.10;;
18046;SDS011;9148;51.454;13.862;2023-11-19T07:27:18;2.93;;;2.63;;
18046;SDS011;9148;51.454;13.862;2023-11-19T07:29:49;3.60;;;2.27;;
18046;SDS011;9148;51.454;13.862;2023-11-19T07:32:14;3.80;;;2.30;;
18046;SDS011;9148;51.454;13.862;2023-11-19T07:34:40;2.70;;;2.17;;
18046;SDS011;9148;51.454;13.862;2023-11-19T07:37:06;2.10;;;1.87;;
18046;SDS011;9148;51.454;13.862;2023-11-19T07:39:32;1.30;;;1.13;;
18046;SDS011;9148;51.454;13.862;2023-11-19T07:42:00;2.07;;;1.97;;
18046;SDS011;9148;51.454;13.862;2023-11-19T07:44:26;2.37;;;2.10;;
18046;SDS011;9148;51.454;13.862;2023-11-19T07:46:52;2.90;;;1.97;;
18046;SDS011;9148;51.454;13.862;2023-11-19T07:49:17;2.27;;;1.53;;
18046;SDS011;9148;51.454;13.862;2023-11-19T07:51:43;1.73;;;1.00;;
18046;SDS011;9148;51.454;13.862;2023-11-19T07:54:08;3.00;;;1.33;;
18046;SDS011;9148;51.454;13.862;2023-11-19T07:56:34;1.80;;;1.20;;
18046;SDS011;9148;51.454;13.862;2023-11-19T07:59:02;2.00;;;1.57;;
18046;SDS011;9148;51.454;13.862;2023-11-19T08:01:28;1.57;;;1.40;;
18046;SDS011;9148;51.454;13.862;2023-11-19T08:03:54;1.43;;;1.30;;
18046;SDS011;9148;51.454;13.862;2023-11-19T08:06:20;1.57;;;1.30;;
18046;SDS011;9148;51.454;13.862;2023-11-19T08:08:46;3.37;;;1.00;;
18046;SDS011;9148;51.454;13.862;2023-11-19T08:11:13;1.50;;;1.40;;
18046;SDS011;9148;51.454;13.862;2023-11-19T08:13:38;1.63;;;1.33;;
18046;SDS011;9148;51.454;13.862;2023-11-19T08:16:04;3.77;;;1.90;;
18046;SDS011;9148;51.454;13.862;2023-11-19T08:18:31;2.10;;;1.37;;
18046;SDS011;9148;51.454;13.862;2023-11-19T08:20:56;1.40;;;1.20;;
18046;SDS011;9148;51.454;13.862;2023-11-19T08:23:24;1.40;;;1.30;;
18046;SDS011;9148;51.454;13.862;2023-11-19T08:25:50;2.80;;;2.03;;
18046;SDS011;9148;51.454;13.862;2023-11-19T08:28:16;5.63;;;1.60;;
18046;SDS011;9148;51.454;13.862;2023-11-19T08:30:45;1.60;;;1.43;;
18046;SDS011;9148;51.454;13.862;2023-11-19T08:33:11;2.43;;;1.43;;
18046;SDS011;9148;51.454;13.862;2023-11-19T08:35:39;2.17;;;1.43;;
18046;SDS011;9148;51.454;13.862;2023-11-19T08:38:05;3.00;;;1.87;;
18046;SDS011;9148;51.454;13.862;2023-11-19T08:40:30;3.77;;;1.90;;
18046;SDS011;9148;51.454;13.862;2023-11-19T08:42:56;2.87;;;2.00;;
18046;SDS011;9148;51.454;13.862;2023-11-19T08:45:22;2.30;;;1.57;;
18046;SDS011;9148;51.454;13.862;2023-11-19T08:47:48;1.77;;;1.37;;
18046;SDS011;9148;51.454;13.862;2023-11-19T08:50:14;3.33;;;1.20;;
18046;SDS011;9148;51.454;13.862;2023-11-19T08:52:39;1.53;;;1.43;;
18046;SDS011;9148;51.454;13.862;2023-11-19T08:55:05;1.53;;;1.20;;
18046;SDS011;9148;51.454;13.862;2023-11-19T08:57:31;1.87;;;1.70;;
18046;SDS011;9148;51.454;13.862;2023-11-19T09:00:00;1.63;;;1.53;;
18046;SDS011;9148;51.454;13.862;2023-11-19T09:02:26;2.83;;;1.50;;
18046;SDS011;9148;51.454;13.862;2023-11-19T09:04:52;1.70;;;1.47;;
18046;SDS011;9148;51.454;13.862;2023-11-19T09:07:17;2.40;;;1.30;;
18046;SDS011;9148;51.454;13.862;2023-11-19T09:09:43;2.80;;;1.00;;
18046;SDS011;9148;51.454;13.862;2023-11-19T09:12:09;1.53;;;1.13;;
18046;SDS011;9148;51.454;13.862;2023-11-19T09:14:34;1.33;;;0.83;;
18046;SDS011;9148;51.454;13.862;2023-11-19T09:17:00;10.13;;;1.20;;
18046;SDS011;9148;51.454;13.862;2023-11-19T09:19:26;1.43;;;0.97;;
18046;SDS011;9148;51.454;13.862;2023-11-19T09:21:52;3.07;;;0.87;;
18046;SDS011;9148;51.454;13.862;2023-11-19T09:24:18;0.77;;;0.77;;
18046;SDS011;9148;51.454;13.862;2023-11-19T09:26:44;0.70;;;0.70;;
18046;SDS011;9148;51.454;13.862;2023-11-19T09:29:10;0.53;;;0.53;;
18046;SDS011;9148;51.454;13.862;2023-11-19T09:31:39;0.83;;;0.70;;
18046;SDS011;9148;51.454;13.862;2023-11-19T09:34:05;0.83;;;0.70;;
18046;SDS011;9148;51.454;13.862;2023-11-19T09:36:31;2.57;;;0.37;;
18046;SDS011;9148;51.454;13.862;2023-11-19T09:38:56;0.33;;;0.33;;
18046;SDS011;9148;51.454;13.862;2023-11-19T09:41:22;0.70;;;0.50;;
18046;SDS011;9148;51.454;13.862;2023-11-19T09:43:49;1.03;;;0.30;;
18046;SDS011;9148;51.454;13.862;2023-11-19T09:46:16;0.23;;;0.23;;
18046;SDS011;9148;51.454;13.862;2023-11-19T09:48:42;0.20;;;0.17;;
18046;SDS011;9148;51.454;13.862;2023-11-19T09:51:10;0.43;;;0.27;;
18046;SDS011;9148;51.454;13.862;2023-11-19T09:53:36;0.50;;;0.50;;
18046;SDS011;9148;51.454;13.862;2023-11-19T09:56:03;0.50;;;0.17;;
18046;SDS011;9148;51.454;13.862;2023-11-19T09:58:30;0.20;;;0.20;;
18046;SDS011;9148;51.454;13.862;2023-11-19T10:00:58;1.90;;;0.40;;
18046;SDS011;9148;51.454;13.862;2023-11-19T10:03:29;0.30;;;0.30;;
18046;SDS011;9148;51.454;13.862;2023-11-19T10:06:00;1.03;;;0.30;;
18046;SDS011;9148;51.454;13.862;2023-11-19T10:08:27;2.63;;;0.47;;
18046;SDS011;9148;51.454;13.862;2023-11-19T10:10:53;1.10;;;0.73;;
18046;SDS011;9148;51.454;13.862;2023-11-19T10:13:19;1.20;;;0.40;;
18046;SDS011;9148;51.454;13.862;2023-11-19T10:15:44;0.63;;;0.23;;
18046;SDS011;9148;51.454;13.862;2023-11-19T10:18:14;2.10;;;0.63;;
18046;SDS011;9148;51.454;13.862;2023-11-19T10:20:40;0.47;;;0.47;;
18046;SDS011;9148;51.454;13.862;2023-11-19T10:23:06;6.17;;;0.83;;
18046;SDS011;9148;51.454;13.862;2023-11-19T10:25:33;0.20;;;0.20;;
18046;SDS011;9148;51.454;13.862;2023-11-19T10:27:59;0.13;;;0.13;;
18046;SDS011;9148;51.454;13.862;2023-11-19T10:30:26;0.90;;;0.30;;
18046;SDS011;9148;51.454;13.862;2023-11-19T10:35:50;1.75;;;0.63;;
18046;SDS011;9148;51.454;13.862;2023-11-19T10:38:24;1.13;;;0.57;;
18046;SDS011;9148;51.454;13.862;2023-11-19T10:40:50;0.43;;;0.40;;
18046;SDS011;9148;51.454;13.862;2023-11-19T10:43:17;3.25;;;0.50;;
18046;SDS011;9148;51.454;13.862;2023-11-19T10:45:44;1.00;;;0.50;;
18046;SDS011;9148;51.454;13.862;2023-11-19T10:48:10;7.55;;;0.93;;
18046;SDS011;9148;51.454;13.862;2023-11-19T10:50:37;0.50;;;0.50;;
18046;SDS011;9148;51.454;13.862;2023-11-19T10:53:05;3.03;;;0.90;;
18046;SDS011;9148;51.454;13.862;2023-11-19T10:55:35;1.95;;;0.90;;
18046;SDS011;9148;51.454;13.862;2023-11-19T10:58:04;1.55;;;0.30;;
18046;SDS011;9148;51.454;13.862;2023-11-19T11:00:46;2.05;;;0.75;;
18046;SDS011;9148;51.454;13.862;2023-11-19T11:03:17;2.28;;;0.85;;
18046;SDS011;9148;51.454;13.862;2023-11-19T11:05:47;1.83;;;0.70;;
18046;SDS011;9148;51.454;13.862;2023-11-19T11:08:15;2.85;;;1.30;;
18046;SDS011;9148;51.454;13.862;2023-11-19T11:10:45;0.75;;;0.40;;
18046;SDS011;9148;51.454;13.862;2023-11-19T11:13:22;1.33;;;0.88;;
18046;SDS011;9148;51.454;13.862;2023-11-19T11:15:50;1.45;;;0.60;;
18046;SDS011;9148;51.454;13.862;2023-11-19T11:18:16;5.05;;;1.10;;
18046;SDS011;9148;51.454;13.862;2023-11-19T11:20:46;2.55;;;0.90;;
18046;SDS011;9148;51.454;13.862;2023-11-19T11:26:39;1.10;;;0.52;;
18046;SDS011;9148;51.454;13.862;2023-11-19T11:29:37;0.30;;;0.30;;
18046;SDS011;9148;51.454;13.862;2023-11-19T11:32:30;2.47;;;0.77;;
18046;SDS011;9148;51.454;13.862;2023-11-19T11:38:22;2.22;;;0.82;;
18046;SDS011;9148;51.454;13.862;2023-11-19T11:41:24;2.65;;;0.80;;
18046;SDS011;9148;51.454;13.862;2023-11-19T11:43:49;2.42;;;0.50;;
18046;SDS011;9148;51.454;13.862;2023-11-19T11:49:07;0.80;;;0.40;;
18046;SDS011;9148;51.454;13.862;2023-11-19T11:54:10;5.97;;;0.90;;
18046;SDS011;9148;51.454;13.862;2023-11-19T11:59:47;0.83;;;0.60;;
18046;SDS011;9148;51.454;13.862;2023-11-19T12:02:17;2.37;;;0.93;;
18046;SDS011;9148;51.454;13.862;2023-11-19T12:04:47;0.47;;;0.40;;
18046;SDS011;9148;51.454;13.862;2023-11-19T12:07:21;2.50;;;0.87;;
18046;SDS011;9148;51.454;13.862;2023-11-19T12:10:09;1.53;;;0.87;;
18046;SDS011;9148;51.454;13.862;2023-11-19T12:12:38;3.67;;;1.37;;
18046;SDS011;9148;51.454;13.862;2023-11-19T12:20:14;0.97;;;0.87;;
18046;SDS011;9148;51.454;13.862;2023-11-19T12:22:41;3.77;;;1.27;;
18046;SDS011;9148;51.454;13.862;2023-11-19T12:25:09;2.63;;;1.07;;
18046;SDS011;9148;51.454;13.862;2023-11-19T12:27:37;1.00;;;0.90;;
18046;SDS011;9148;51.454;13.862;2023-11-19T12:30:06;3.90;;;0.77;;
18046;SDS011;9148;51.454;13.862;2023-11-19T12:35:10;3.63;;;0.87;;
18046;SDS011;9148;51.454;13.862;2023-11-19T12:40:10;1.17;;;0.83;;
18046;SDS011;9148;51.454;13.862;2023-11-19T12:42:42;0.60;;;0.60;;
18046;SDS011;9148;51.454;13.862;2023-11-19T12:45:09;1.17;;;1.00;;
18046;SDS011;9148;51.454;13.862;2023-11-19T12:47:38;2.93;;;0.90;;
18046;SDS011;9148;51.454;13.862;2023-11-19T12:50:05;0.97;;;0.73;;
18046;SDS011;9148;51.454;13.862;2023-11-19T12:52:34;0.33;;;0.33;;
18046;SDS011;9148;51.454;13.862;2023-11-19T12:55:01;1.60;;;0.83;;
18046;SDS011;9148;51.454;13.862;2023-11-19T12:57:40;4.30;;;1.43;;
18046;SDS011;9148;51.454;13.862;2023-11-19T13:00:07;1.30;;;0.50;;
18046;SDS011;9148;51.454;13.862;2023-11-19T13:05:30;0.93;;;0.77;;
18046;SDS011;9148;51.454;13.862;2023-11-19T13:10:34;2.33;;;1.20;;
18046;SDS011;9148;51.454;13.862;2023-11-19T13:13:18;2.60;;;0.70;;
18046;SDS011;9148;51.454;13.862;2023-11-19T13:15:45;3.23;;;0.90;;
18046;SDS011;9148;51.454;13.862;2023-11-19T13:18:11;2.00;;;0.93;;
18046;SDS011;9148;51.454;13.862;2023-11-19T13:20:39;1.93;;;0.80;;
18046;SDS011;9148;51.454;13.862;2023-11-19T13:23:05;6.43;;;2.13;;
18046;SDS011;9148;51.454;13.862;2023-11-19T13:25:35;1.60;;;0.47;;
18046;SDS011;9148;51.454;13.862;2023-11-19T13:28:01;1.45;;;0.90;;
18046;SDS011;9148;51.454;13.862;2023-11-19T13:30:28;1.23;;;0.73;;
18046;SDS011;9148;51.454;13.862;2023-11-19T13:32:56;3.90;;;1.27;;
18046;SDS011;9148;51.454;13.862;2023-11-19T13:35:22;5.63;;;1.23;;
18046;SDS011;9148;51.454;13.862;2023-11-19T13:37:48;1.48;;;0.75;;
18046;SDS011;9148;51.454;13.862;2023-11-19T13:40:13;1.40;;;0.88;;
18046;SDS011;9148;51.454;13.862;2023-11-19T13:42:43;1.20;;;1.02;;
18046;SDS011;9148;51.454;13.862;2023-11-19T13:45:10;3.05;;;1.17;;
18046;SDS011;9148;51.454;13.862;2023-11-19T13:47:41;4.13;;;0.80;;
18046;SDS011;9148;51.454;13.862;2023-11-19T13:50:09;0.70;;;0.70;;
18046;SDS011;9148;51.454;13.862;2023-11-19T13:52:41;2.90;;;0.70;;
18046;SDS011;9148;51.454;13.862;2023-11-19T13:55:10;5.20;;;1.08;;
18046;SDS011;9148;51.454;13.862;2023-11-19T13:57:36;2.30;;;1.17;;
18046;SDS011;9148;51.454;13.862;2023-11-19T14:00:03;3.30;;;0.87;;
18046;SDS011;9148;51.454;13.862;2023-11-19T14:02:41;1.53;;;1.07;;
18046;SDS011;9148;51.454;13.862;2023-11-19T14:05:07;1.37;;;0.83;;
18046;SDS011;9148;51.454;13.862;2023-11-19T14:07:34;1.77;;;1.20;;
18046;SDS011;9148;51.454;13.862;2023-11-19T14:09:59;0.43;;;0.43;;
18046;SDS011;9148;51.454;13.862;2023-11-19T14:12:25;1.00;;;0.63;;
18046;SDS011;9148;51.454;13.862;2023-11-19T14:14:51;6.40;;;1.53;;
18046;SDS011;9148;51.454;13.862;2023-11-19T14:17:17;6.23;;;1.97;;
18046;SDS011;9148;51.454;13.862;2023-11-19T14:19:43;1.80;;;0.80;;
18046;SDS011;9148;51.454;13.862;2023-11-19T14:22:09;2.93;;;1.40;;
18046;SDS011;9148;51.454;13.862;2023-11-19T14:24:35;3.03;;;0.97;;
18046;SDS011;9148;51.454;13.862;2023-11-19T14:27:01;2.60;;;1.63;;
18046;SDS011;9148;51.454;13.862;2023-11-19T14:29:27;3.33;;;1.47;;
18046;SDS011;9148;51.454;13.862;2023-11-19T14:31:56;4.87;;;1.50;;
18046;SDS011;9148;51.454;13.862;2023-11-19T14:34:23;4.17;;;1.23;;
18046;SDS011;9148;51.454;13.862;2023-11-19T14:36:49;2.87;;;1.77;;
18046;SDS011;9148;51.454;13.862;2023-11-19T14:39:15;1.50;;;0.97;;
18046;SDS011;9148;51.454;13.862;2023-11-19T14:41:42;1.53;;;1.33;;
18046;SDS011;9148;51.454;13.862;2023-11-19T14:44:09;4.43;;;1.17;;
18046;SDS011;9148;51.454;13.862;2023-11-19T14:46:35;1.80;;;1.30;;
18046;SDS011;9148;51.454;13.862;2023-11-19T14:49:01;4.77;;;1.43;;
18046;SDS011;9148;51.454;13.862;2023-11-19T14:51:27;1.97;;;1.20;;
18046;SDS011;9148;51.454;13.862;2023-11-19T14:53:52;8.13;;;1.83;;
18046;SDS011;9148;51.454;13.862;2023-11-19T14:56:18;5.73;;;1.47;;
18046;SDS011;9148;51.454;13.862;2023-11-19T14:58:44;7.30;;;1.70;;
18046;SDS011;9148;51.454;13.862;2023-11-19T15:01:13;3.47;;;2.07;;
18046;SDS011;9148;51.454;13.862;2023-11-19T15:03:39;1.67;;;1.30;;
18046;SDS011;9148;51.454;13.862;2023-11-19T15:06:05;1.50;;;1.10;;
18046;SDS011;9148;51.454;13.862;2023-11-19T15:08:32;2.90;;;0.93;;
18046;SDS011;9148;51.454;13.862;2023-11-19T15:10:58;4.97;;;1.50;;
18046;SDS011;9148;51.454;13.862;2023-11-19T15:13:26;2.60;;;1.50;;
18046;SDS011;9148;51.454;13.862;2023-11-19T15:15:52;4.73;;;2.00;;
18046;SDS011;9148;51.454;13.862;2023-11-19T15:18:20;5.37;;;2.07;;
18046;SDS011;9148;51.454;13.862;2023-11-19T15:20:46;4.73;;;1.77;;
18046;SDS011;9148;51.454;13.862;2023-11-19T15:23:12;6.20;;;2.17;;